createdAt,value
2022-08-25T00:00:21.364Z,18.66
2022-08-25T00:03:04.963Z,18.65
2022-08-25T00:05:36.079Z,18.64
2022-08-25T00:08:07.436Z,18.62
2022-08-25T00:10:38.526Z,18.58
2022-08-25T00:13:07.415Z,18.54
2022-08-25T00:15:36.372Z,18.51
2022-08-25T00:18:05.703Z,18.49
2022-08-25T00:20:49.273Z,18.45
2022-08-25T00:23:18.624Z,18.44
2022-08-25T00:25:46.617Z,18.42
2022-08-25T00:28:16.992Z,18.40
2022-08-25T00:30:45.284Z,18.38
2022-08-25T00:33:14.820Z,18.38
2022-08-25T00:35:43.305Z,18.36
2022-08-25T00:38:12.765Z,18.34
2022-08-25T00:40:42.279Z,18.31
2022-08-25T00:43:11.351Z,18.28
2022-08-25T00:45:40.157Z,18.26
2022-08-25T00:48:08.238Z,18.24
2022-08-25T00:50:36.597Z,18.21
2022-08-25T00:53:06.077Z,18.21
2022-08-25T00:55:38.190Z,18.17
2022-08-25T00:58:15.295Z,18.15
2022-08-25T01:00:48.469Z,18.12
2022-08-25T01:03:19.267Z,18.08
2022-08-25T01:05:49.172Z,18.07
2022-08-25T01:08:22.093Z,18.07
2022-08-25T01:10:50.844Z,18.03
2022-08-25T01:13:34.175Z,18.01
2022-08-25T01:16:02.529Z,17.99
2022-08-25T01:18:44.731Z,17.99
2022-08-25T01:21:13.175Z,17.95
2022-08-25T01:23:42.362Z,17.93
2022-08-25T01:26:19.299Z,17.90
2022-08-25T01:29:08.952Z,17.86
2022-08-25T01:31:38.574Z,17.86
2022-08-25T01:34:08.891Z,17.86
2022-08-25T01:36:36.842Z,17.85
2022-08-25T01:39:05.934Z,17.86
2022-08-25T01:41:45.231Z,17.84
2022-08-25T01:44:16.683Z,17.85
2022-08-25T01:46:44.840Z,17.83
2022-08-25T01:49:12.980Z,17.80
2022-08-25T01:52:00.644Z,17.78
2022-08-25T01:54:28.778Z,17.74
2022-08-25T01:56:58.266Z,17.73
2022-08-25T01:59:27.344Z,17.70
2022-08-25T02:01:57.502Z,17.67
2022-08-25T02:04:33.108Z,17.67
2022-08-25T02:07:06.754Z,17.66
2022-08-25T02:09:37.083Z,17.62
2022-08-25T02:12:05.687Z,17.61
2022-08-25T02:14:35.738Z,17.59
2022-08-25T02:17:06.395Z,17.59
2022-08-25T02:19:34.431Z,17.57
2022-08-25T02:22:02.867Z,17.55
2022-08-25T02:24:33.290Z,17.54
2022-08-25T02:27:02.051Z,17.53
2022-08-25T02:29:30.361Z,17.52
2022-08-25T02:31:59.016Z,17.51
2022-08-25T02:34:27.647Z,17.49
2022-08-25T02:36:55.925Z,17.51
2022-08-25T02:39:24.050Z,17.49
2022-08-25T02:41:52.155Z,17.47
2022-08-25T02:44:21.204Z,17.46
2022-08-25T02:46:49.296Z,17.44
2022-08-25T02:49:17.713Z,17.43
2022-08-25T02:51:45.773Z,17.39
2022-08-25T02:54:14.168Z,17.39
2022-08-25T02:56:43.000Z,17.36
2022-08-25T02:59:12.350Z,17.35
2022-08-25T03:01:40.939Z,17.33
2022-08-25T03:04:09.011Z,17.32
2022-08-25T03:06:37.093Z,17.29
2022-08-25T03:09:05.277Z,17.28
2022-08-25T03:11:33.421Z,17.26
2022-08-25T03:14:01.491Z,17.25
2022-08-25T03:16:29.729Z,17.22
2022-08-25T03:18:58.468Z,17.20
2022-08-25T03:21:29.419Z,17.17
2022-08-25T03:23:59.527Z,17.18
2022-08-25T03:26:46.228Z,17.15
2022-08-25T03:29:14.342Z,17.13
2022-08-25T03:31:44.943Z,17.12
2022-08-25T03:34:17.589Z,17.12
2022-08-25T03:36:48.610Z,17.10
2022-08-25T03:39:18.526Z,17.10
2022-08-25T03:41:47.316Z,17.08
2022-08-25T03:44:18.766Z,17.09
2022-08-25T03:46:49.926Z,17.08
2022-08-25T03:49:22.830Z,17.05
2022-08-25T03:51:53.839Z,17.03
2022-08-25T03:54:26.288Z,17.04
2022-08-25T03:56:55.978Z,17.00
2022-08-25T03:59:24.120Z,17.01
2022-08-25T04:01:55.134Z,17.01
2022-08-25T04:04:24.674Z,17.02
2022-08-25T04:06:53.990Z,17.02
2022-08-25T04:09:23.287Z,17.05
2022-08-25T04:11:53.267Z,17.05
2022-08-25T04:14:23.668Z,17.08
2022-08-25T04:16:53.574Z,17.13
2022-08-25T04:19:22.330Z,17.16
2022-08-25T04:21:51.799Z,17.20
2022-08-25T04:24:25.229Z,17.20
2022-08-25T04:26:53.425Z,17.25
2022-08-25T04:29:23.989Z,17.28
2022-08-25T04:31:54.438Z,17.32
2022-08-25T04:34:29.991Z,17.37
2022-08-25T04:37:02.705Z,17.40
2022-08-25T04:39:31.328Z,17.43
2022-08-25T04:42:01.185Z,17.46
2022-08-25T04:44:30.969Z,17.50
2022-08-25T04:47:01.578Z,17.52
2022-08-25T04:49:31.787Z,17.55
2022-08-25T04:52:00.279Z,17.58
2022-08-25T04:54:36.045Z,17.61
2022-08-25T04:57:06.951Z,17.67
2022-08-25T04:59:34.982Z,17.70
2022-08-25T05:02:05.924Z,17.76
2022-08-25T05:04:36.245Z,17.82
2022-08-25T05:07:05.187Z,17.88
2022-08-25T05:09:34.630Z,17.93
2022-08-25T05:12:04.160Z,18.01
2022-08-25T05:14:32.938Z,18.06
2022-08-25T05:17:02.104Z,18.11
2022-08-25T05:19:32.939Z,18.18
2022-08-25T05:22:02.421Z,18.24
2022-08-25T05:24:30.632Z,18.29
2022-08-25T05:26:59.300Z,18.37
2022-08-25T05:29:27.443Z,18.41
2022-08-25T05:31:56.068Z,18.44
2022-08-25T05:34:24.984Z,18.46
2022-08-25T05:36:53.110Z,18.47
2022-08-25T05:39:21.166Z,18.50
2022-08-25T05:41:49.210Z,18.54
2022-08-25T05:44:21.338Z,18.53
2022-08-25T05:46:51.409Z,18.58
2022-08-25T05:49:21.633Z,18.60
2022-08-25T05:51:49.927Z,18.66
2022-08-25T05:54:18.019Z,18.70
2022-08-25T05:56:46.090Z,18.73
2022-08-25T05:59:14.934Z,18.79
2022-08-25T06:02:01.637Z,18.85
2022-08-25T06:04:31.302Z,18.96
2022-08-25T06:07:00.097Z,19.10
2022-08-25T06:09:28.150Z,19.22
2022-08-25T06:11:56.398Z,19.38
2022-08-25T06:14:25.964Z,19.59
2022-08-25T06:16:54.075Z,19.74
2022-08-25T06:19:23.773Z,19.88
2022-08-25T06:21:57.596Z,20.06
2022-08-25T06:24:28.125Z,20.18
2022-08-25T06:26:56.859Z,20.31
2022-08-25T06:29:26.492Z,20.46
2022-08-25T06:31:54.983Z,20.62
2022-08-25T06:34:24.226Z,20.73
2022-08-25T06:36:52.896Z,20.90
2022-08-25T06:39:21.693Z,21.00
2022-08-25T06:41:56.748Z,21.10
2022-08-25T06:44:27.857Z,21.20
2022-08-25T06:46:56.636Z,21.31
2022-08-25T06:49:29.276Z,21.42
2022-08-25T06:52:00.028Z,21.52
2022-08-25T06:54:28.117Z,21.68
2022-08-25T06:56:57.023Z,21.80
2022-08-25T06:59:31.983Z,21.87
2022-08-25T07:02:03.243Z,21.98
2022-08-25T07:04:33.185Z,22.10
2022-08-25T07:07:02.831Z,22.21
2022-08-25T07:09:31.430Z,22.30
2022-08-25T07:12:00.409Z,22.40
2022-08-25T07:14:28.637Z,22.50
2022-08-25T07:16:57.033Z,22.64
2022-08-25T07:19:25.707Z,22.74
2022-08-25T07:21:54.373Z,22.83
2022-08-25T07:24:24.282Z,22.91
2022-08-25T07:26:52.766Z,23.02
2022-08-25T07:32:15.385Z,23.18
2022-08-25T07:35:02.377Z,23.25
2022-08-25T07:37:48.026Z,23.36
2022-08-25T07:40:21.902Z,23.42
2022-08-25T07:42:52.395Z,23.47
2022-08-25T07:45:26.310Z,23.54
2022-08-25T07:47:55.812Z,23.58
2022-08-25T07:50:24.744Z,23.59
2022-08-25T07:52:54.866Z,23.64
2022-08-25T07:55:28.353Z,23.75
2022-08-25T07:58:00.423Z,23.79
2022-08-25T08:00:35.875Z,23.86
2022-08-25T08:03:08.183Z,23.88
2022-08-25T08:33:35.276Z,25.43
2022-08-25T08:35:12.895Z,25.60
2022-08-25T08:43:47.275Z,26.01
2022-08-25T09:03:55.507Z,27.01
2022-08-25T09:06:38.607Z,27.26
2022-08-25T09:09:11.186Z,27.43
2022-08-25T09:11:51.556Z,27.59
2022-08-25T09:14:45.992Z,27.75
2022-08-25T09:17:46.181Z,27.72
2022-08-25T09:20:59.770Z,27.89
2022-08-25T09:24:07.552Z,28.10
2022-08-25T09:26:59.080Z,28.19
2022-08-25T09:29:41.942Z,28.26
2022-08-25T09:32:11.637Z,28.34
2022-08-25T09:34:46.634Z,28.33
2022-08-25T09:37:15.010Z,28.51
2022-08-25T09:39:43.667Z,28.56
2022-08-25T09:42:12.727Z,28.58
2022-08-25T09:44:48.930Z,28.76
2022-08-25T09:47:20.903Z,28.94
2022-08-25T09:50:00.374Z,29.10
2022-08-25T09:52:35.354Z,29.16
2022-08-25T09:55:09.701Z,29.22
2022-08-25T09:57:47.894Z,29.30
2022-08-25T10:00:33.893Z,29.64
2022-08-25T10:03:22.627Z,29.77
2022-08-25T10:05:56.650Z,30.06
2022-08-25T10:08:45.649Z,30.35
2022-08-25T10:11:31.293Z,30.62
2022-08-25T10:14:09.077Z,30.62
2022-08-25T10:16:49.372Z,31.01
2022-08-25T10:19:29.492Z,31.13
2022-08-25T10:22:11.367Z,31.25
2022-08-25T10:24:43.819Z,31.38
2022-08-25T10:27:28.803Z,31.64
2022-08-25T10:30:30.159Z,31.72
2022-08-25T10:33:18.595Z,31.71
2022-08-25T10:35:57.078Z,31.66
2022-08-25T10:38:36.051Z,31.62
2022-08-25T10:41:30.956Z,31.63
2022-08-25T10:44:55.266Z,31.53
2022-08-25T10:48:01.569Z,31.55
2022-08-25T10:50:38.661Z,31.74
2022-08-25T10:53:45.277Z,32.25
2022-08-25T10:56:28.796Z,32.61
2022-08-25T10:59:07.301Z,32.61
2022-08-25T11:01:57.902Z,32.79
2022-08-25T11:04:40.341Z,32.48
2022-08-25T11:07:22.238Z,32.45
2022-08-25T11:09:55.158Z,32.67
2022-08-25T11:12:45.464Z,33.21
2022-08-25T11:15:54.543Z,33.33
2022-08-25T11:18:34.314Z,33.34
2022-08-25T11:21:16.302Z,33.70
2022-08-25T11:23:55.636Z,34.12
2022-08-25T11:26:36.673Z,34.32
2022-08-25T11:29:16.011Z,34.11
2022-08-25T11:31:53.363Z,33.94
2022-08-25T11:34:23.423Z,34.08
2022-08-25T11:37:11.085Z,34.18
2022-08-25T11:40:06.755Z,34.60
2022-08-25T11:43:03.637Z,35.25
2022-08-25T11:46:27.753Z,35.31
2022-08-25T11:49:15.452Z,35.59
2022-08-25T11:51:49.395Z,35.64
2022-08-25T11:54:34.876Z,35.74
2022-08-25T11:57:18.271Z,35.20
2022-08-25T11:59:52.712Z,35.09
2022-08-25T12:02:51.715Z,35.45
2022-08-25T12:05:20.233Z,35.49
2022-08-25T12:07:48.641Z,34.89
2022-08-25T12:10:21.618Z,35.45
2022-08-25T12:12:59.964Z,35.80
2022-08-25T12:15:34.881Z,35.85
2022-08-25T12:18:26.887Z,36.04
2022-08-25T12:20:55.217Z,35.92
2022-08-25T12:23:32.654Z,35.86
2022-08-25T12:26:26.219Z,35.88
2022-08-25T12:29:01.344Z,35.68
2022-08-25T12:31:57.457Z,35.89
2022-08-25T12:34:59.617Z,35.36
2022-08-25T12:37:31.912Z,35.46
2022-08-25T12:40:04.960Z,36.05
2022-08-25T12:42:37.964Z,36.00
2022-08-25T12:45:24.111Z,35.94
2022-08-25T12:47:54.804Z,35.86
2022-08-25T12:50:28.308Z,36.14
2022-08-25T12:53:11.217Z,36.43
2022-08-25T12:55:49.204Z,36.69
2022-08-25T12:58:26.363Z,36.39
2022-08-25T13:01:35.401Z,36.77
2022-08-25T13:04:47.431Z,37.32
2022-08-25T13:07:39.761Z,37.29
2022-08-25T13:10:22.822Z,37.15
2022-08-25T13:13:05.143Z,37.40
2022-08-25T13:15:35.764Z,37.51
2022-08-25T13:18:36.675Z,37.29
2022-08-25T13:21:19.247Z,37.05
2022-08-25T13:24:04.649Z,37.24
2022-08-25T13:26:48.499Z,37.13
2022-08-25T13:29:24.931Z,37.63
2022-08-25T13:32:14.447Z,38.04
2022-08-25T13:34:43.927Z,38.68
2022-08-25T13:37:29.699Z,39.33
2022-08-25T13:40:17.721Z,39.52
2022-08-25T13:42:55.468Z,39.11
2022-08-25T13:45:28.528Z,39.16
2022-08-25T13:47:58.457Z,39.46
2022-08-25T13:50:26.888Z,38.80
2022-08-25T13:53:14.878Z,39.00
2022-08-25T13:56:00.251Z,38.59
2022-08-25T13:58:44.861Z,38.53
2022-08-25T14:01:22.916Z,38.35
2022-08-25T14:04:33.596Z,38.61
2022-08-25T14:07:20.333Z,38.68
2022-08-25T14:09:57.128Z,37.80
2022-08-25T14:12:36.635Z,38.11
2022-08-25T14:15:22.974Z,38.60
2022-08-25T14:18:19.408Z,38.51
2022-08-25T14:20:52.285Z,38.85
2022-08-25T14:23:31.761Z,39.15
2022-08-25T14:26:01.598Z,38.64
2022-08-25T14:28:32.022Z,38.65
2022-08-25T14:31:14.645Z,38.20
2022-08-25T14:33:52.052Z,38.30
2022-08-25T14:36:20.874Z,38.62
2022-08-25T14:38:54.549Z,38.80
2022-08-25T14:41:26.010Z,38.02
2022-08-25T14:43:56.336Z,37.85
2022-08-25T14:46:28.192Z,38.67
2022-08-25T14:49:01.074Z,38.64
2022-08-25T14:51:33.060Z,38.43
2022-08-25T14:54:05.846Z,39.01
2022-08-25T14:56:37.964Z,39.48
2022-08-25T14:59:11.904Z,39.15
2022-08-25T15:01:41.127Z,38.85
2022-08-25T15:04:22.776Z,38.94
2022-08-25T15:07:23.429Z,39.28
2022-08-25T15:09:54.590Z,39.31
2022-08-25T15:12:46.054Z,38.90
2022-08-25T15:15:11.401Z,39.01
2022-08-25T15:17:44.406Z,38.86
2022-08-25T15:20:14.134Z,38.94
2022-08-25T15:22:45.600Z,38.99
2022-08-25T15:25:14.139Z,39.06
2022-08-25T15:27:43.316Z,38.89
2022-08-25T15:30:13.530Z,39.05
2022-08-25T15:32:42.328Z,39.45
2022-08-25T15:35:11.108Z,39.50
2022-08-25T15:37:43.915Z,38.98
2022-08-25T15:40:12.857Z,39.46
2022-08-25T15:42:42.844Z,39.24
2022-08-25T15:45:15.439Z,38.42
2022-08-25T15:47:43.714Z,38.34
2022-08-25T15:50:15.003Z,37.97
2022-08-25T15:52:47.460Z,38.13
2022-08-25T15:55:21.288Z,38.68
2022-08-25T15:57:50.094Z,38.73
2022-08-25T16:00:19.201Z,37.75
2022-08-25T16:02:50.969Z,37.20
2022-08-25T16:05:25.708Z,37.38
2022-08-25T16:07:55.350Z,37.45
2022-08-25T16:10:23.970Z,37.22
2022-08-25T16:12:53.420Z,37.57
2022-08-25T16:15:23.889Z,37.57
2022-08-25T16:18:00.447Z,37.50
2022-08-25T16:20:30.947Z,37.37
2022-08-25T16:23:00.800Z,37.46
2022-08-25T16:25:30.746Z,36.75
2022-08-25T16:27:58.928Z,36.56
2022-08-25T16:30:27.270Z,36.21
2022-08-25T16:32:56.669Z,35.85
2022-08-25T16:35:25.405Z,35.52
2022-08-25T16:37:55.205Z,35.35
2022-08-25T16:40:26.488Z,35.05
2022-08-25T16:42:55.722Z,34.55
2022-08-25T16:45:24.719Z,33.89
2022-08-25T16:47:53.374Z,33.40
2022-08-25T16:50:22.655Z,32.95
2022-08-25T16:53:09.257Z,32.47
2022-08-25T16:55:40.075Z,32.05
2022-08-25T16:58:13.380Z,31.66
2022-08-25T17:00:44.592Z,31.06
2022-08-25T17:03:13.272Z,30.69
2022-08-25T17:05:43.426Z,30.30
2022-08-25T17:08:30.777Z,29.76
2022-08-25T17:11:14.680Z,29.26
2022-08-25T17:13:47.037Z,28.74
2022-08-25T17:16:21.413Z,28.39
2022-08-25T17:18:50.514Z,28.01
2022-08-25T17:21:25.040Z,27.67
2022-08-25T17:23:56.479Z,27.36
2022-08-25T17:26:27.967Z,27.12
2022-08-25T17:28:59.727Z,26.88
2022-08-25T17:31:29.861Z,26.68
2022-08-25T17:33:59.500Z,26.45
2022-08-25T17:36:29.206Z,26.19
2022-08-25T17:38:57.788Z,25.99
2022-08-25T17:41:27.547Z,25.80
2022-08-25T17:43:55.746Z,25.63
2022-08-25T17:46:27.414Z,25.45
2022-08-25T17:48:58.125Z,25.27
2022-08-25T17:51:27.128Z,25.10
2022-08-25T17:54:00.134Z,24.90
2022-08-25T17:56:29.279Z,24.74
2022-08-25T17:58:58.002Z,24.61
2022-08-25T18:01:32.207Z,24.46
2022-08-25T18:04:00.659Z,24.31
2022-08-25T18:06:31.138Z,24.19
2022-08-25T18:09:01.825Z,24.05
2022-08-25T18:11:31.769Z,23.90
2022-08-25T18:14:01.086Z,23.75
2022-08-25T18:16:29.841Z,23.62
2022-08-25T18:18:57.931Z,23.51
2022-08-25T18:21:30.581Z,23.39
2022-08-25T18:23:58.926Z,23.29
2022-08-25T18:26:28.080Z,23.16
2022-08-25T18:28:58.407Z,23.07
2022-08-25T18:31:26.958Z,22.96
2022-08-25T18:33:55.327Z,22.87
2022-08-25T18:36:23.483Z,22.78
2022-08-25T18:39:10.156Z,22.68
2022-08-25T18:41:40.745Z,22.57
2022-08-25T18:44:10.753Z,22.49
2022-08-25T18:46:40.335Z,22.41
2022-08-25T18:49:09.261Z,22.33
2022-08-25T18:51:37.561Z,22.24
2022-08-25T18:54:06.139Z,22.16
2022-08-25T18:56:35.010Z,22.08
2022-08-25T18:59:04.782Z,22.00
2022-08-25T19:01:37.690Z,21.93
2022-08-25T19:04:06.010Z,21.87
2022-08-25T19:06:34.094Z,21.81
2022-08-25T19:09:02.209Z,21.76
2022-08-25T19:11:31.097Z,21.69
2022-08-25T19:13:59.874Z,21.65
2022-08-25T19:16:35.952Z,21.61
2022-08-25T19:19:09.324Z,21.54
2022-08-25T19:21:39.111Z,21.44
2022-08-25T19:24:09.908Z,21.36
2022-08-25T19:26:39.503Z,21.27
2022-08-25T19:29:12.903Z,21.20
2022-08-25T19:31:43.216Z,21.10
2022-08-25T19:34:16.480Z,21.06
2022-08-25T19:36:47.790Z,20.98
2022-08-25T19:39:16.751Z,20.92
2022-08-25T19:41:47.357Z,20.88
2022-08-25T19:44:19.433Z,20.83
2022-08-25T19:46:47.807Z,20.78
2022-08-25T19:49:31.655Z,20.74
2022-08-25T19:52:03.513Z,20.70
2022-08-25T19:54:48.571Z,20.64
2022-08-25T19:57:16.872Z,20.59
2022-08-25T19:59:56.807Z,20.57
2022-08-25T20:02:29.689Z,20.52
2022-08-25T20:05:01.944Z,20.48
2022-08-25T20:07:31.635Z,20.45
2022-08-25T20:10:01.535Z,20.40
2022-08-25T20:12:29.999Z,20.35
2022-08-25T20:14:58.464Z,20.31
2022-08-25T20:17:28.617Z,20.25
2022-08-25T20:20:01.676Z,20.20
2022-08-25T20:22:33.671Z,20.13
2022-08-25T20:25:17.642Z,20.11
2022-08-25T20:27:49.672Z,20.05
2022-08-25T20:30:30.377Z,20.02
2022-08-25T20:32:59.822Z,19.95
2022-08-25T20:35:29.328Z,19.89
2022-08-25T20:37:58.539Z,19.85
2022-08-25T20:40:29.951Z,19.82
2022-08-25T20:43:03.089Z,19.78
2022-08-25T20:45:35.961Z,19.72
2022-08-25T20:48:04.380Z,19.66
2022-08-25T20:50:33.888Z,19.59
2022-08-25T20:53:02.671Z,19.54
2022-08-25T20:55:32.204Z,19.46
2022-08-25T20:58:08.696Z,19.41
2022-08-25T21:00:37.771Z,19.36
2022-08-25T21:03:06.005Z,19.31
2022-08-25T21:05:39.157Z,19.25
2022-08-25T21:08:10.481Z,19.20
2022-08-25T21:10:40.193Z,19.11
2022-08-25T21:13:08.366Z,19.05
2022-08-25T21:15:40.773Z,18.98
2022-08-25T21:18:10.123Z,18.90
2022-08-25T21:20:40.071Z,18.82
2022-08-25T21:23:08.516Z,18.77
2022-08-25T21:25:41.934Z,18.75
2022-08-25T21:28:10.126Z,18.73
2022-08-25T21:30:44.800Z,18.71
2022-08-25T21:33:17.192Z,18.69
2022-08-25T21:35:46.859Z,18.63
2022-08-25T21:38:15.334Z,18.60
2022-08-25T21:40:46.012Z,18.54
2022-08-25T21:43:18.640Z,18.45
2022-08-25T21:45:47.216Z,18.38
2022-08-25T21:48:16.654Z,18.31
2022-08-25T21:50:45.930Z,18.25
2022-08-25T21:53:14.117Z,18.19
2022-08-25T21:55:44.432Z,18.12
2022-08-25T21:58:13.189Z,18.08
2022-08-25T22:00:41.812Z,18.07
2022-08-25T22:03:09.896Z,18.04
2022-08-25T22:05:38.426Z,18.03
2022-08-25T22:08:08.741Z,18.00
2022-08-25T22:10:43.499Z,17.95
2022-08-25T22:13:11.762Z,17.92
2022-08-25T22:15:40.611Z,17.87
2022-08-25T22:18:08.856Z,17.86
2022-08-25T22:20:39.201Z,17.83
2022-08-25T22:23:10.029Z,17.79
2022-08-25T22:25:48.573Z,17.76
2022-08-25T22:28:17.099Z,17.72
2022-08-25T22:30:45.194Z,17.69
2022-08-25T22:33:13.623Z,17.64
2022-08-25T22:35:42.206Z,17.62
2022-08-25T22:38:12.271Z,17.59
2022-08-25T22:40:41.440Z,17.54
2022-08-25T22:43:10.955Z,17.47
2022-08-25T22:45:39.954Z,17.46
2022-08-25T22:48:08.046Z,17.41
2022-08-25T22:50:37.125Z,17.35
2022-08-25T22:53:05.148Z,17.32
2022-08-25T22:55:33.274Z,17.31
2022-08-25T22:58:01.462Z,17.27
2022-08-25T23:00:29.478Z,17.21
2022-08-25T23:02:57.576Z,17.16
2022-08-25T23:05:25.618Z,17.12
2022-08-25T23:07:57.801Z,17.05
2022-08-25T23:10:26.648Z,16.98
2022-08-25T23:12:54.914Z,16.93
2022-08-25T23:15:23.223Z,16.90
2022-08-25T23:17:51.592Z,16.87
2022-08-25T23:20:55.102Z,16.83
2022-08-25T23:23:25.001Z,16.79
2022-08-25T23:25:54.171Z,16.76
2022-08-25T23:28:22.230Z,16.74
2022-08-25T23:30:57.139Z,16.74
2022-08-25T23:33:27.711Z,16.70
2022-08-25T23:36:04.300Z,16.65
2022-08-25T23:38:32.939Z,16.63
2022-08-25T23:41:06.298Z,16.58
2022-08-25T23:43:35.436Z,16.55
2022-08-25T23:46:04.596Z,16.53
2022-08-25T23:48:33.894Z,16.52
2022-08-25T23:51:03.842Z,16.49
2022-08-25T23:53:32.130Z,16.45
2022-08-25T23:56:00.182Z,16.41
2022-08-25T23:58:29.004Z,16.38
